createdAt,value
2023-05-14T00:00:23.116Z,9.35
2023-05-14T00:02:50.210Z,9.32
2023-05-14T00:05:16.928Z,9.23
2023-05-14T00:07:43.467Z,9.24
2023-05-14T00:10:10.564Z,9.25
2023-05-14T00:12:37.174Z,9.23
2023-05-14T00:15:04.105Z,9.18
2023-05-14T00:17:31.097Z,9.06
2023-05-14T00:19:57.769Z,9.11
2023-05-14T00:22:24.356Z,9.10
2023-05-14T00:24:50.944Z,9.11
2023-05-14T00:27:17.676Z,9.09
2023-05-14T00:29:45.633Z,9.02
2023-05-14T00:32:12.287Z,9.02
2023-05-14T00:34:38.876Z,8.92
2023-05-14T00:37:05.705Z,8.94
2023-05-14T00:39:32.362Z,8.89
2023-05-14T00:41:59.166Z,8.86
2023-05-14T00:44:25.749Z,8.75
2023-05-14T00:46:53.277Z,8.75
2023-05-14T00:49:20.263Z,8.78
2023-05-14T00:51:47.122Z,8.77
2023-05-14T00:54:17.822Z,8.81
2023-05-14T00:56:48.173Z,8.73
2023-05-14T00:59:14.844Z,8.74
2023-05-14T01:01:41.627Z,8.74
2023-05-14T01:04:10.541Z,8.79
2023-05-14T01:06:59.156Z,8.78
2023-05-14T01:09:36.532Z,8.76
2023-05-14T01:12:12.393Z,8.79
2023-05-14T01:15:10.481Z,8.75
2023-05-14T01:17:46.962Z,8.73
2023-05-14T01:20:13.940Z,8.67
2023-05-14T01:22:40.506Z,8.62
2023-05-14T01:25:07.637Z,8.54
2023-05-14T01:27:56.481Z,8.54
2023-05-14T01:30:34.869Z,8.46
2023-05-14T01:33:13.482Z,8.42
2023-05-14T01:35:41.377Z,8.45
2023-05-14T01:38:12.339Z,8.43
2023-05-14T01:40:39.878Z,8.35
2023-05-14T01:43:06.682Z,8.32
2023-05-14T01:45:36.094Z,8.33
2023-05-14T01:48:02.930Z,8.25
2023-05-14T01:50:29.558Z,8.19
2023-05-14T01:52:56.692Z,8.11
2023-05-14T01:55:26.925Z,8.10
2023-05-14T01:57:53.763Z,8.11
2023-05-14T02:00:22.288Z,8.10
2023-05-14T02:02:49.065Z,8.06
2023-05-14T02:05:15.831Z,8.01
2023-05-14T02:07:42.438Z,8.18
2023-05-14T02:10:09.741Z,8.13
2023-05-14T02:12:36.405Z,8.11
2023-05-14T02:15:04.167Z,8.06
2023-05-14T02:17:30.814Z,8.04
2023-05-14T02:19:57.547Z,7.99
2023-05-14T02:22:24.106Z,7.97
2023-05-14T02:24:51.497Z,7.99
2023-05-14T02:27:18.493Z,7.94
2023-05-14T02:29:45.050Z,7.92
2023-05-14T02:32:11.661Z,7.92
2023-05-14T02:34:38.746Z,7.87
2023-05-14T02:37:05.600Z,7.79
2023-05-14T02:39:32.185Z,7.81
2023-05-14T02:41:58.779Z,7.81
2023-05-14T02:44:25.361Z,7.80
2023-05-14T02:46:51.952Z,7.79
2023-05-14T02:49:18.625Z,7.78
2023-05-14T02:51:45.253Z,7.79
2023-05-14T02:54:11.864Z,7.79
2023-05-14T02:56:38.539Z,7.76
2023-05-14T02:59:05.162Z,7.74
2023-05-14T03:01:31.891Z,7.71
2023-05-14T03:03:58.962Z,7.71
2023-05-14T03:06:25.565Z,7.64
2023-05-14T03:08:52.152Z,7.64
2023-05-14T03:11:18.836Z,7.63
2023-05-14T03:13:45.389Z,7.61
2023-05-14T03:16:12.095Z,7.59
2023-05-14T03:18:38.717Z,7.54
2023-05-14T03:21:05.325Z,7.54
2023-05-14T03:23:34.926Z,7.50
2023-05-14T03:26:02.331Z,7.47
2023-05-14T03:28:28.948Z,7.46
2023-05-14T03:30:55.649Z,7.48
2023-05-14T03:33:22.828Z,7.41
2023-05-14T03:35:49.445Z,7.34
2023-05-14T03:38:16.017Z,7.36
2023-05-14T03:40:45.346Z,7.35
2023-05-14T03:43:11.910Z,7.34
2023-05-14T03:45:38.888Z,7.33
2023-05-14T03:48:06.154Z,7.34
2023-05-14T03:50:32.938Z,7.26
2023-05-14T03:52:59.535Z,7.24
2023-05-14T03:55:26.120Z,7.20
2023-05-14T03:57:52.751Z,7.18
2023-05-14T04:00:19.610Z,7.16
2023-05-14T04:02:46.362Z,7.16
2023-05-14T04:05:12.984Z,7.14
2023-05-14T04:07:39.538Z,7.14
2023-05-14T04:10:06.885Z,7.16
2023-05-14T04:12:33.535Z,7.16
2023-05-14T04:15:00.079Z,7.12
2023-05-14T04:17:26.908Z,7.15
2023-05-14T04:19:53.637Z,7.16
2023-05-14T04:22:20.195Z,7.17
2023-05-14T04:24:46.818Z,7.13
2023-05-14T04:27:21.143Z,7.13
2023-05-14T04:29:48.836Z,7.11
2023-05-14T04:32:15.445Z,7.09
2023-05-14T04:34:42.036Z,7.10
2023-05-14T04:37:09.041Z,7.13
2023-05-14T04:39:35.779Z,7.16
2023-05-14T04:42:02.362Z,7.11
2023-05-14T04:44:28.973Z,7.07
2023-05-14T04:46:55.630Z,7.10
2023-05-14T04:49:22.374Z,7.14
2023-05-14T04:51:49.512Z,7.19
2023-05-14T04:54:16.137Z,7.23
2023-05-14T04:56:42.690Z,7.25
2023-05-14T04:59:09.405Z,7.34
2023-05-14T05:01:36.254Z,7.36
2023-05-14T05:04:02.978Z,7.39
2023-05-14T05:06:29.937Z,7.42
2023-05-14T05:08:56.552Z,7.50
2023-05-14T05:11:23.116Z,7.60
2023-05-14T05:13:50.334Z,7.71
2023-05-14T05:16:17.079Z,7.83
2023-05-14T05:18:44.732Z,7.97
2023-05-14T05:21:11.500Z,8.09
2023-05-14T05:23:38.131Z,8.18
2023-05-14T05:26:04.732Z,8.27
2023-05-14T05:28:31.326Z,8.39
2023-05-14T05:30:57.895Z,8.54
2023-05-14T05:33:24.571Z,8.67
2023-05-14T05:35:52.755Z,8.79
2023-05-14T05:38:19.361Z,8.99
2023-05-14T05:40:45.993Z,9.09
2023-05-14T05:43:14.043Z,9.21
2023-05-14T05:45:41.564Z,9.36
2023-05-14T05:48:08.220Z,9.42
2023-05-14T05:50:35.073Z,9.66
2023-05-14T05:53:01.930Z,9.88
2023-05-14T05:55:29.572Z,10.02
2023-05-14T05:57:56.585Z,10.18
2023-05-14T06:00:24.001Z,10.38
2023-05-14T06:02:50.834Z,10.58
2023-05-14T06:05:17.682Z,10.79
2023-05-14T06:07:44.397Z,11.03
2023-05-14T06:10:11.097Z,11.23
2023-05-14T06:12:37.748Z,11.34
2023-05-14T06:15:04.790Z,11.39
2023-05-14T06:17:31.410Z,11.62
2023-05-14T06:19:58.060Z,11.89
2023-05-14T06:22:24.669Z,12.12
2023-05-14T06:24:51.234Z,12.43
2023-05-14T06:27:17.807Z,12.70
2023-05-14T06:29:44.553Z,12.79
2023-05-14T06:32:14.267Z,12.94
2023-05-14T06:34:42.479Z,12.78
2023-05-14T06:37:10.027Z,13.16
2023-05-14T06:39:37.517Z,13.46
2023-05-14T06:42:04.594Z,13.61
2023-05-14T06:44:31.332Z,13.90
2023-05-14T06:46:57.929Z,14.15
2023-05-14T06:49:24.510Z,14.34
2023-05-14T06:51:51.107Z,14.44
2023-05-14T06:54:17.832Z,14.61
2023-05-14T06:56:44.502Z,15.01
2023-05-14T06:59:11.070Z,15.34
2023-05-14T07:01:37.690Z,15.33
2023-05-14T07:04:04.445Z,15.64
2023-05-14T07:06:31.077Z,15.92
2023-05-14T07:08:57.699Z,16.29
2023-05-14T07:11:24.295Z,16.39
2023-05-14T07:13:50.927Z,16.43
2023-05-14T07:16:17.547Z,16.80
2023-05-14T07:18:45.511Z,16.96
2023-05-14T07:21:12.501Z,16.83
2023-05-14T07:23:39.092Z,16.70
2023-05-14T07:26:06.236Z,16.92
2023-05-14T07:28:32.948Z,16.53
2023-05-14T07:30:59.765Z,16.87
2023-05-14T07:33:26.955Z,17.36
2023-05-14T07:35:54.220Z,17.12
2023-05-14T07:38:21.220Z,17.48
2023-05-14T07:40:47.824Z,17.48
2023-05-14T07:43:14.469Z,17.46
2023-05-14T07:45:41.230Z,17.64
2023-05-14T07:48:08.116Z,17.84
2023-05-14T07:50:34.792Z,18.45
2023-05-14T07:53:01.384Z,18.90
2023-05-14T07:55:28.050Z,19.12
2023-05-14T07:57:54.669Z,19.01
2023-05-14T08:00:21.678Z,18.89
2023-05-14T08:02:49.334Z,19.18
2023-05-14T08:05:16.663Z,19.63
2023-05-14T08:07:43.513Z,19.62
2023-05-14T08:10:10.666Z,19.99
2023-05-14T08:12:37.367Z,19.30
2023-05-14T08:15:04.412Z,19.32
2023-05-14T08:17:31.058Z,19.29
2023-05-14T08:19:57.721Z,19.58
2023-05-14T08:22:24.384Z,19.83
2023-05-14T08:24:51.035Z,20.40
2023-05-14T08:27:17.669Z,20.18
2023-05-14T08:29:44.272Z,20.43
2023-05-14T08:32:22.173Z,20.45
2023-05-14T08:34:50.806Z,20.93
2023-05-14T08:37:17.540Z,21.34
2023-05-14T08:39:44.376Z,21.27
2023-05-14T08:42:13.084Z,21.14
2023-05-14T08:44:51.990Z,21.48
2023-05-14T08:47:22.148Z,21.99
2023-05-14T08:49:55.073Z,22.47
2023-05-14T08:52:22.872Z,22.29
2023-05-14T08:54:51.311Z,21.56
2023-05-14T08:57:20.236Z,21.11
2023-05-14T08:59:47.406Z,19.90
2023-05-14T09:02:16.939Z,19.25
2023-05-14T09:04:43.861Z,19.02
2023-05-14T09:07:11.439Z,18.83
2023-05-14T09:09:38.652Z,18.83
2023-05-14T09:12:06.677Z,19.68
2023-05-14T09:14:33.436Z,20.60
2023-05-14T09:17:00.092Z,21.33
2023-05-14T09:19:27.063Z,21.15
2023-05-14T09:21:59.199Z,20.84
2023-05-14T09:24:29.080Z,21.38
2023-05-14T09:26:58.750Z,21.59
2023-05-14T09:29:26.461Z,22.14
2023-05-14T09:31:53.911Z,22.80
2023-05-14T09:34:24.624Z,23.15
2023-05-14T09:36:58.443Z,22.92
2023-05-14T09:39:25.948Z,23.54
2023-05-14T09:42:00.399Z,23.43
2023-05-14T09:44:28.270Z,22.16
2023-05-14T09:46:55.901Z,22.38
2023-05-14T09:49:23.115Z,23.07
2023-05-14T09:51:50.761Z,22.78
2023-05-14T09:54:17.621Z,22.50
2023-05-14T09:56:44.629Z,22.62
2023-05-14T09:59:11.363Z,22.59
2023-05-14T10:01:38.714Z,22.80
2023-05-14T10:04:08.228Z,21.60
2023-05-14T10:06:39.714Z,22.03
2023-05-14T10:09:12.449Z,22.86
2023-05-14T10:11:43.799Z,23.50
2023-05-14T10:14:53.705Z,23.22
2023-05-14T10:17:23.668Z,22.59
2023-05-14T10:19:54.513Z,22.82
2023-05-14T10:22:24.488Z,22.64
2023-05-14T10:24:52.816Z,23.09
2023-05-14T10:27:23.657Z,24.20
2023-05-14T10:29:56.835Z,24.82
2023-05-14T10:32:25.860Z,24.91
2023-05-14T10:34:53.848Z,24.44
2023-05-14T10:37:25.592Z,24.42
2023-05-14T10:40:00.182Z,23.81
2023-05-14T10:42:35.966Z,23.76
2023-05-14T10:45:07.441Z,24.01
2023-05-14T10:47:48.815Z,23.53
2023-05-14T10:50:16.223Z,23.13
2023-05-14T10:52:44.426Z,22.87
2023-05-14T10:55:14.597Z,22.38
2023-05-14T10:57:43.797Z,22.29
2023-05-14T11:00:12.539Z,22.27
2023-05-14T11:02:41.030Z,23.59
2023-05-14T11:05:13.832Z,23.28
2023-05-14T11:07:45.966Z,23.00
2023-05-14T11:10:21.481Z,23.64
2023-05-14T11:12:51.015Z,23.15
2023-05-14T11:15:22.741Z,22.90
2023-05-14T11:17:50.937Z,22.83
2023-05-14T11:20:18.303Z,22.31
2023-05-14T11:22:46.563Z,22.68
2023-05-14T11:25:14.880Z,22.68
2023-05-14T11:27:43.867Z,22.66
2023-05-14T11:30:18.648Z,22.55
2023-05-14T11:32:47.174Z,22.35
2023-05-14T11:35:15.187Z,22.22
2023-05-14T11:37:42.341Z,21.93
2023-05-14T11:40:14.587Z,21.89
2023-05-14T11:42:41.880Z,21.95
2023-05-14T11:45:12.353Z,21.98
2023-05-14T11:47:40.685Z,22.33
2023-05-14T11:50:21.586Z,23.43
2023-05-14T11:52:50.820Z,23.16
2023-05-14T11:55:17.866Z,23.42
2023-05-14T11:57:44.679Z,23.22
2023-05-14T12:00:21.557Z,22.55
2023-05-14T12:02:49.953Z,22.75
2023-05-14T12:05:16.978Z,22.57
2023-05-14T12:07:47.528Z,21.98
2023-05-14T12:10:14.183Z,21.48
2023-05-14T12:12:41.011Z,21.33
2023-05-14T12:15:14.851Z,21.57
2023-05-14T12:17:42.030Z,21.78
2023-05-14T12:20:11.063Z,21.92
2023-05-14T12:22:38.451Z,22.25
2023-05-14T12:25:11.229Z,22.23
2023-05-14T12:27:37.915Z,22.65
2023-05-14T12:30:20.755Z,22.31
2023-05-14T12:32:53.011Z,21.84
2023-05-14T12:35:21.564Z,21.47
2023-05-14T12:37:48.254Z,21.01
2023-05-14T12:40:14.902Z,20.66
2023-05-14T12:42:41.676Z,20.33
2023-05-14T12:45:08.739Z,18.87
2023-05-14T12:47:36.861Z,18.90
2023-05-14T12:50:04.751Z,18.97
2023-05-14T12:55:01.498Z,18.89
2023-05-14T12:57:29.755Z,19.11
2023-05-14T12:59:57.319Z,19.77
2023-05-14T13:02:24.003Z,19.73
2023-05-14T13:04:51.068Z,20.36
2023-05-14T13:07:17.655Z,20.24
2023-05-14T13:09:44.308Z,19.82
2023-05-14T13:12:11.007Z,19.57
2023-05-14T13:14:37.611Z,19.40
2023-05-14T13:17:05.195Z,18.88
2023-05-14T13:19:31.961Z,18.54
2023-05-14T13:21:58.520Z,18.44
2023-05-14T13:24:25.236Z,18.57
2023-05-14T13:26:52.004Z,19.26
2023-05-14T13:29:18.646Z,19.06
2023-05-14T13:31:45.325Z,18.81
2023-05-14T13:34:13.176Z,19.40
2023-05-14T13:36:41.249Z,20.21
2023-05-14T13:39:08.190Z,20.84
2023-05-14T13:41:35.807Z,21.29
2023-05-14T13:44:02.353Z,21.14
2023-05-14T13:46:29.296Z,21.30
2023-05-14T13:48:56.029Z,21.64
2023-05-14T13:51:23.316Z,21.00
2023-05-14T13:53:50.895Z,20.71
2023-05-14T13:56:17.606Z,20.61
2023-05-14T13:58:44.219Z,20.43
2023-05-14T14:01:10.862Z,19.86
2023-05-14T14:03:37.539Z,19.56
2023-05-14T14:06:04.279Z,19.24
2023-05-14T14:08:31.208Z,19.37
2023-05-14T14:10:58.299Z,19.88
2023-05-14T14:13:25.094Z,20.35
2023-05-14T14:15:51.770Z,20.86
2023-05-14T14:18:18.652Z,20.55
2023-05-14T14:20:45.381Z,20.61
2023-05-14T14:23:12.010Z,20.50
2023-05-14T14:25:38.689Z,20.26
2023-05-14T14:28:05.449Z,20.16
2023-05-14T14:30:32.881Z,20.35
2023-05-14T14:33:01.312Z,20.61
2023-05-14T14:35:28.037Z,20.90
2023-05-14T14:37:55.694Z,21.10
2023-05-14T14:40:24.066Z,21.54
2023-05-14T14:42:50.802Z,21.65
2023-05-14T14:45:17.914Z,21.50
2023-05-14T14:47:46.597Z,21.67
2023-05-14T14:50:13.731Z,21.82
2023-05-14T14:52:45.513Z,21.36
2023-05-14T14:55:12.791Z,20.61
2023-05-14T14:57:39.766Z,20.21
2023-05-14T15:00:07.321Z,20.02
2023-05-14T15:02:34.558Z,19.95
2023-05-14T15:05:01.454Z,19.87
2023-05-14T15:07:29.625Z,19.80
2023-05-14T15:09:56.355Z,19.83
2023-05-14T15:12:22.991Z,19.78
2023-05-14T15:14:49.585Z,19.70
2023-05-14T15:17:16.344Z,19.66
2023-05-14T15:19:43.037Z,19.55
2023-05-14T15:22:09.730Z,19.57
2023-05-14T15:24:36.464Z,19.46
2023-05-14T15:27:03.179Z,19.44
2023-05-14T15:29:29.905Z,19.50
2023-05-14T15:31:56.841Z,19.44
2023-05-14T15:34:23.551Z,19.93
2023-05-14T15:36:50.536Z,20.29
2023-05-14T15:39:17.258Z,20.70
2023-05-14T15:41:44.063Z,20.84
2023-05-14T15:44:10.712Z,20.30
2023-05-14T15:46:38.053Z,19.87
2023-05-14T15:49:04.761Z,19.62
2023-05-14T15:51:32.109Z,19.69
2023-05-14T15:53:59.026Z,19.99
2023-05-14T15:56:25.887Z,20.50
2023-05-14T15:58:52.565Z,20.63
2023-05-14T16:01:19.708Z,20.55
2023-05-14T16:03:46.485Z,20.27
2023-05-14T16:06:14.593Z,19.86
2023-05-14T16:08:41.192Z,19.49
2023-05-14T16:11:07.807Z,18.89
2023-05-14T16:13:35.768Z,18.85
2023-05-14T16:16:02.508Z,18.67
2023-05-14T16:18:29.626Z,18.30
2023-05-14T16:20:56.546Z,18.15
2023-05-14T16:23:23.145Z,18.14
2023-05-14T16:25:50.114Z,18.01
2023-05-14T16:28:16.950Z,17.81
2023-05-14T16:30:43.552Z,17.39
2023-05-14T16:33:10.526Z,17.20
2023-05-14T16:35:37.289Z,16.99
2023-05-14T16:38:04.158Z,16.99
2023-05-14T16:40:30.716Z,16.88
2023-05-14T16:42:57.348Z,16.67
2023-05-14T16:45:24.179Z,16.65
2023-05-14T16:47:51.753Z,16.58
2023-05-14T16:50:18.349Z,16.61
2023-05-14T16:52:44.961Z,16.63
2023-05-14T16:55:11.615Z,16.62
2023-05-14T16:57:38.279Z,16.53
2023-05-14T17:00:06.238Z,16.42
2023-05-14T17:02:33.728Z,16.21
2023-05-14T17:05:00.564Z,16.28
2023-05-14T17:07:27.512Z,16.34
2023-05-14T17:09:54.193Z,16.39
2023-05-14T17:12:20.827Z,16.39
2023-05-14T17:14:47.455Z,16.40
2023-05-14T17:17:14.016Z,16.41
2023-05-14T17:19:40.806Z,16.42
2023-05-14T17:22:07.382Z,16.39
2023-05-14T17:24:35.465Z,16.25
2023-05-14T17:27:02.151Z,16.16
2023-05-14T17:29:28.802Z,16.04
2023-05-14T17:32:03.570Z,15.92
2023-05-14T17:34:30.589Z,15.87
2023-05-14T17:36:57.388Z,15.82
2023-05-14T17:39:24.059Z,15.71
2023-05-14T17:41:50.657Z,15.56
2023-05-14T17:44:17.220Z,15.56
2023-05-14T17:46:44.920Z,15.49
2023-05-14T17:49:12.067Z,15.54
2023-05-14T17:51:38.634Z,15.53
2023-05-14T17:54:05.258Z,15.49
2023-05-14T17:56:32.092Z,15.43
2023-05-14T17:58:58.707Z,15.41
2023-05-14T18:01:25.405Z,15.34
2023-05-14T18:03:52.505Z,15.29
2023-05-14T18:06:19.205Z,15.27
2023-05-14T18:08:45.831Z,15.31
2023-05-14T18:11:12.460Z,15.25
2023-05-14T18:13:39.088Z,15.18
2023-05-14T18:16:05.743Z,15.16
2023-05-14T18:18:32.504Z,15.00
2023-05-14T18:20:59.580Z,14.93
2023-05-14T18:23:26.219Z,14.89
2023-05-14T18:25:52.864Z,14.91
2023-05-14T18:28:21.408Z,14.89
2023-05-14T18:30:51.094Z,14.84
2023-05-14T18:33:18.174Z,14.86
2023-05-14T18:35:44.858Z,14.86
2023-05-14T18:38:13.776Z,14.84
2023-05-14T18:40:40.561Z,14.86
2023-05-14T18:43:07.333Z,14.87
2023-05-14T18:45:34.010Z,14.87
2023-05-14T18:48:01.149Z,14.87
2023-05-14T18:50:27.828Z,14.85
2023-05-14T18:52:54.486Z,14.82
2023-05-14T18:55:21.184Z,14.73
2023-05-14T18:57:47.906Z,14.72
2023-05-14T19:00:15.074Z,14.71
2023-05-14T19:02:41.952Z,14.72
2023-05-14T19:05:09.015Z,14.73
2023-05-14T19:07:37.198Z,14.70
2023-05-14T19:10:04.762Z,14.62
2023-05-14T19:12:31.868Z,14.58
2023-05-14T19:14:58.482Z,14.49
2023-05-14T19:17:25.623Z,14.44
2023-05-14T19:19:52.296Z,14.47
2023-05-14T19:22:19.558Z,14.43
2023-05-14T19:24:46.291Z,14.36
2023-05-14T19:27:16.253Z,14.31
2023-05-14T19:29:43.786Z,14.29
2023-05-14T19:32:10.934Z,14.28
2023-05-14T19:34:37.534Z,14.24
2023-05-14T19:37:05.188Z,14.18
2023-05-14T19:39:31.892Z,14.09
2023-05-14T19:41:58.542Z,14.07
2023-05-14T19:44:25.177Z,14.01
2023-05-14T19:46:51.969Z,13.99
2023-05-14T19:49:18.628Z,13.76
2023-05-14T19:51:45.272Z,13.48
2023-05-14T19:54:11.872Z,13.49
2023-05-14T19:56:38.660Z,13.42
2023-05-14T19:59:05.286Z,13.39
2023-05-14T20:01:32.494Z,13.38
2023-05-14T20:03:59.278Z,13.40
2023-05-14T20:06:25.932Z,13.31
2023-05-14T20:08:52.601Z,13.35
2023-05-14T20:11:19.685Z,13.33
2023-05-14T20:13:46.328Z,13.36
2023-05-14T20:16:16.649Z,13.34
2023-05-14T20:18:44.089Z,13.38
2023-05-14T20:21:10.958Z,13.40
2023-05-14T20:23:37.671Z,13.42
2023-05-14T20:26:06.957Z,13.40
2023-05-14T20:28:38.148Z,13.38
2023-05-14T20:31:08.269Z,13.36
2023-05-14T20:33:38.071Z,13.31
2023-05-14T20:36:12.283Z,13.24
2023-05-14T20:38:41.580Z,13.19
2023-05-14T20:41:13.425Z,13.17
2023-05-14T20:43:43.462Z,13.12
2023-05-14T20:46:12.368Z,13.07
2023-05-14T20:48:47.052Z,13.10
2023-05-14T20:51:16.893Z,13.08
2023-05-14T20:53:43.918Z,13.10
2023-05-14T20:56:14.368Z,13.14
2023-05-14T20:58:41.293Z,13.09
2023-05-14T21:01:08.347Z,13.04
2023-05-14T21:03:36.074Z,13.01
2023-05-14T21:06:05.919Z,12.92
2023-05-14T21:08:40.645Z,12.88
2023-05-14T21:11:07.910Z,12.85
2023-05-14T21:13:34.951Z,12.88
2023-05-14T21:16:11.311Z,12.89
2023-05-14T21:18:41.358Z,12.89
2023-05-14T21:21:08.373Z,12.94
2023-05-14T21:23:37.166Z,12.88
2023-05-14T21:26:06.967Z,12.85
2023-05-14T21:28:39.651Z,12.87
2023-05-14T21:31:15.011Z,12.87
2023-05-14T21:33:42.583Z,12.89
2023-05-14T21:36:10.218Z,12.91
2023-05-14T21:38:37.464Z,12.82
2023-05-14T21:41:09.217Z,12.83
2023-05-14T21:43:42.628Z,12.84
2023-05-14T21:46:15.000Z,12.80
2023-05-14T21:48:50.560Z,12.74
2023-05-14T21:51:31.101Z,12.73
2023-05-14T21:54:04.404Z,12.65
2023-05-14T21:56:42.699Z,12.68
2023-05-14T21:59:13.839Z,12.68
2023-05-14T22:02:05.374Z,12.66
2023-05-14T22:04:33.234Z,12.69
2023-05-14T22:07:08.578Z,12.66
2023-05-14T22:09:41.368Z,12.58
2023-05-14T22:12:22.761Z,12.62
2023-05-14T22:14:49.372Z,12.59
2023-05-14T22:17:16.142Z,12.58
2023-05-14T22:19:42.726Z,12.57
2023-05-14T22:22:09.301Z,12.56
2023-05-14T22:24:35.914Z,12.47
2023-05-14T22:27:02.458Z,12.40
2023-05-14T22:29:28.983Z,12.33
2023-05-14T22:31:55.714Z,12.32
2023-05-14T22:34:22.499Z,12.27
2023-05-14T22:36:49.065Z,12.21
2023-05-14T22:39:15.689Z,12.14
2023-05-14T22:41:42.269Z,12.10
2023-05-14T22:44:08.814Z,12.05
2023-05-14T22:46:35.696Z,12.02
2023-05-14T22:49:02.263Z,12.03
2023-05-14T22:51:28.934Z,12.04
2023-05-14T22:53:55.688Z,11.84
2023-05-14T22:56:22.348Z,11.88
2023-05-14T22:58:48.989Z,11.92
2023-05-14T23:01:15.872Z,11.90
2023-05-14T23:03:42.454Z,11.83
2023-05-14T23:06:09.062Z,11.84
2023-05-14T23:08:35.874Z,11.76
2023-05-14T23:11:02.457Z,11.74
2023-05-14T23:13:29.059Z,11.66
2023-05-14T23:15:57.275Z,11.58
2023-05-14T23:18:26.239Z,11.60
2023-05-14T23:20:53.459Z,11.69
2023-05-14T23:23:20.227Z,11.59
2023-05-14T23:25:49.165Z,11.53
2023-05-14T23:28:16.625Z,11.53
2023-05-14T23:30:46.353Z,11.49
2023-05-14T23:33:12.977Z,11.37
2023-05-14T23:35:39.969Z,11.43
2023-05-14T23:38:07.402Z,11.38
2023-05-14T23:40:34.146Z,11.45
2023-05-14T23:43:01.184Z,11.42
2023-05-14T23:45:28.118Z,11.40
2023-05-14T23:47:57.185Z,11.36
2023-05-14T23:50:24.413Z,11.31
2023-05-14T23:52:52.261Z,11.30
2023-05-14T23:55:19.446Z,11.32
2023-05-14T23:57:46.183Z,11.28
